Time;durP1;ratioP1;P1;durP2;ratioP2;P2;SDS_P1;SDS_P2;PMS_P1;PMS_P2;Temp;Humidity;BMP_temperature;BMP_pressure;BME280_temperature;BME280_humidity;BME280_pressure;Samples;Min_cycle;Max_cycle;Signal;HPM_P1;HPM_P2
2021/03/18 00:00:17;;;;;;;5.57;4.70;;;1.20;99.90;;;;;;5070290;28;20300;-83
2021/03/18 00:02:43;;;;;;;6.25;5.25;;;1.30;99.90;;;;;;5070102;28;20529;-82
2021/03/18 00:05:12;;;;;;;5.70;5.20;;;1.30;99.90;;;;;;5070619;28;20290;-83
2021/03/18 00:07:39;;;;;;;6.32;5.82;;;1.50;99.90;;;;;;5070831;28;20611;-83
2021/03/18 00:10:09;;;;;;;8.50;6.35;;;1.70;99.90;;;;;;5070875;28;20285;-83
2021/03/18 00:12:36;;;;;;;7.10;5.90;;;1.70;99.90;;;;;;5050331;28;20226;-82
2021/03/18 00:15:08;;;;;;;5.85;5.15;;;1.80;99.90;;;;;;5064061;28;20590;-83
2021/03/18 00:17:36;;;;;;;6.78;6.05;;;2.00;99.60;;;;;;5070905;28;20669;-83
2021/03/18 00:20:06;;;;;;;6.65;6.00;;;1.80;98.20;;;;;;5070884;28;20198;-83
2021/03/18 00:22:34;;;;;;;7.68;6.75;;;1.70;98.30;;;;;;5069989;28;20207;-82
2021/03/18 00:25:02;;;;;;;6.53;5.57;;;1.70;98.60;;;;;;5069839;28;20241;-83
2021/03/18 00:27:29;;;;;;;8.52;6.18;;;1.90;98.90;;;;;;5070365;28;20587;-83
2021/03/18 00:29:57;;;;;;;8.68;7.03;;;1.90;98.70;;;;;;5070613;28;20195;-83
2021/03/18 00:32:24;;;;;;;7.65;5.32;;;2.00;98.70;;;;;;5069613;28;20202;-82
2021/03/18 00:34:50;;;;;;;12.25;5.88;;;2.20;98.80;;;;;;5070441;28;20684;-82
2021/03/18 00:37:17;;;;;;;5.90;5.05;;;2.10;98.50;;;;;;5070914;28;20252;-82
2021/03/18 00:39:43;;;;;;;6.95;5.68;;;2.10;98.30;;;;;;5070028;28;20281;-83
2021/03/18 00:42:10;;;;;;;6.05;5.40;;;2.00;98.00;;;;;;5070412;28;20211;-82
2021/03/18 00:44:36;;;;;;;7.28;5.75;;;1.80;97.90;;;;;;5069676;28;20199;-83
2021/03/18 00:47:03;;;;;;;8.98;6.32;;;1.70;98.20;;;;;;5070082;28;20226;-82
2021/03/18 00:49:30;;;;;;;7.45;5.55;;;1.80;98.20;;;;;;5070436;28;20203;-82
2021/03/18 00:51:57;;;;;;;6.30;5.70;;;2.00;98.20;;;;;;5070409;28;20231;-82
2021/03/18 00:54:23;;;;;;;5.43;4.88;;;2.20;97.90;;;;;;5069237;28;20227;-82
2021/03/18 00:56:49;;;;;;;8.45;5.85;;;2.10;97.30;;;;;;5070714;28;20274;-83
2021/03/18 00:59:16;;;;;;;6.35;5.72;;;2.10;97.30;;;;;;5070556;28;20223;-83
2021/03/18 01:01:42;;;;;;;6.80;5.70;;;2.10;97.10;;;;;;5074359;28;20203;-83
2021/03/18 01:04:09;;;;;;;7.93;5.65;;;2.20;97.10;;;;;;5073368;28;20298;-83
2021/03/18 01:06:38;;;;;;;7.72;5.60;;;2.10;96.90;;;;;;5074225;28;20222;-83
2021/03/18 01:09:06;;;;;;;5.63;5.10;;;1.90;97.20;;;;;;5074536;28;20230;-83
2021/03/18 01:11:36;;;;;;;5.35;4.30;;;2.10;97.00;;;;;;5074449;28;20222;-83
2021/03/18 01:14:05;;;;;;;5.30;4.80;;;2.10;96.90;;;;;;5073498;28;20596;-82
2021/03/18 01:16:34;;;;;;;7.90;5.13;;;2.30;97.10;;;;;;5073957;28;20191;-82
2021/03/18 01:19:04;;;;;;;5.68;5.07;;;2.20;97.00;;;;;;5073448;28;20242;-82
2021/03/18 01:21:33;;;;;;;5.10;4.60;;;2.00;96.30;;;;;;5074324;28;20210;-82
2021/03/18 01:24:00;;;;;;;8.40;5.15;;;1.90;96.40;;;;;;5072503;28;20253;-82
2021/03/18 01:26:27;;;;;;;6.43;4.47;;;1.80;96.40;;;;;;5073753;28;20222;-82
2021/03/18 01:28:53;;;;;;;8.35;5.15;;;1.80;96.60;;;;;;5073832;28;20287;-82
2021/03/18 01:31:20;;;;;;;7.28;5.32;;;1.80;96.50;;;;;;5073863;28;20191;-82
2021/03/18 01:33:47;;;;;;;7.30;5.03;;;1.60;96.70;;;;;;5072984;28;20302;-82
2021/03/18 01:36:14;;;;;;;5.30;4.60;;;1.70;96.90;;;;;;5074133;28;20207;-82
2021/03/18 01:38:41;;;;;;;4.72;4.32;;;1.50;96.80;;;;;;5073689;28;20207;-83
2021/03/18 01:41:09;;;;;;;5.78;4.72;;;1.50;97.00;;;;;;5073374;28;20734;-82
2021/03/18 01:43:36;;;;;;;7.72;5.35;;;1.50;97.10;;;;;;5073090;28;20195;-82
2021/03/18 01:46:03;;;;;;;5.15;4.65;;;1.40;97.40;;;;;;5073368;28;20684;-82
2021/03/18 01:48:30;;;;;;;7.78;5.25;;;1.40;97.60;;;;;;5073202;28;20274;-83
2021/03/18 01:50:57;;;;;;;5.68;4.65;;;1.40;97.80;;;;;;5073470;28;20203;-83
2021/03/18 01:53:25;;;;;;;6.18;5.57;;;1.40;97.60;;;;;;5072671;28;20249;-82
2021/03/18 01:55:53;;;;;;;5.30;4.50;;;1.20;97.70;;;;;;5073522;28;20199;-82
2021/03/18 01:58:21;;;;;;;7.90;5.40;;;1.30;97.90;;;;;;5073187;28;20321;-82
2021/03/18 02:00:51;;;;;;;7.68;5.03;;;1.20;98.00;;;;;;5072369;28;20234;-82
2021/03/18 02:03:18;;;;;;;4.70;4.22;;;1.20;98.10;;;;;;5072331;28;20205;-82
2021/03/18 02:05:46;;;;;;;7.05;4.70;;;1.30;98.00;;;;;;5072496;28;20602;-82
2021/03/18 02:08:14;;;;;;;5.35;4.80;;;1.40;97.70;;;;;;5067806;28;20210;-82
2021/03/18 02:10:42;;;;;;;6.07;4.53;;;1.40;97.60;;;;;;5067681;28;20231;-82
2021/03/18 02:13:12;;;;;;;7.00;4.97;;;1.30;97.80;;;;;;5072367;28;20200;-82
2021/03/18 02:15:43;;;;;;;7.18;5.88;;;1.40;98.00;;;;;;5072332;28;20195;-82
2021/03/18 02:18:16;;;;;;;7.90;5.70;;;1.60;98.10;;;;;;5072596;28;20710;-82
2021/03/18 02:21:26;;;;;;;6.80;4.80;;;1.80;97.50;;;;;;5072640;28;20199;-82
2021/03/18 02:24:17;;;;;;;6.65;5.57;;;1.80;97.00;;;;;;5071958;28;20199;-82
2021/03/18 02:27:08;;;;;;;6.38;5.20;;;1.80;96.70;;;;;;5072846;28;20226;-82
2021/03/18 02:30:11;;;;;;;5.30;4.53;;;1.90;96.30;;;;;;5070650;28;20223;-82
2021/03/18 02:32:59;;;;;;;6.35;5.30;;;2.00;96.40;;;;;;5072433;28;20207;-81
2021/03/18 02:35:31;;;;;;;6.00;5.40;;;2.10;96.70;;;;;;5072428;28;20196;-82
2021/03/18 02:38:02;;;;;;;7.95;6.22;;;2.00;96.40;;;;;;5072798;28;20203;-82
2021/03/18 02:40:33;;;;;;;6.50;5.65;;;2.10;96.70;;;;;;5072044;28;20191;-82
2021/03/18 02:43:05;;;;;;;8.57;5.70;;;2.00;96.80;;;;;;5072035;28;20676;-81
2021/03/18 02:45:36;;;;;;;5.78;4.70;;;1.80;96.60;;;;;;5071832;28;20226;-81
2021/03/18 02:48:09;;;;;;;5.55;5.05;;;1.70;97.30;;;;;;5072712;28;20649;-82
2021/03/18 02:50:38;;;;;;;5.90;5.30;;;1.70;96.90;;;;;;5072311;28;20340;-82
2021/03/18 02:53:06;;;;;;;6.32;5.25;;;1.60;96.70;;;;;;5071885;28;20203;-81
2021/03/18 02:55:37;;;;;;;7.53;6.00;;;1.50;96.70;;;;;;5071596;28;20303;-82
2021/03/18 02:58:06;;;;;;;6.40;5.00;;;1.60;97.10;;;;;;5072396;28;20328;-81
2021/03/18 03:00:35;;;;;;;5.65;4.80;;;1.60;96.90;;;;;;5071632;28;20282;-82
2021/03/18 03:03:04;;;;;;;7.60;5.43;;;1.80;97.30;;;;;;5071810;28;20257;-81
2021/03/18 03:05:34;;;;;;;5.75;5.07;;;2.10;97.60;;;;;;5071478;28;20203;-81
2021/03/18 03:08:04;;;;;;;6.40;4.97;;;2.30;97.20;;;;;;5071706;28;20631;-82
2021/03/18 03:10:31;;;;;;;7.68;5.95;;;2.30;97.30;;;;;;5067030;28;20260;-82
2021/03/18 03:12:58;;;;;;;6.10;4.55;;;2.20;97.00;;;;;;5071381;28;20230;-82
2021/03/18 03:15:29;;;;;;;6.43;5.38;;;2.20;96.90;;;;;;5070464;28;20211;-82
2021/03/18 03:17:58;;;;;;;5.07;4.43;;;2.30;96.60;;;;;;5070851;28;20539;-82
2021/03/18 03:20:26;;;;;;;5.70;5.20;;;2.20;96.60;;;;;;5071002;28;20248;-81
2021/03/18 03:22:55;;;;;;;7.50;5.05;;;2.20;96.30;;;;;;5070497;28;20195;-81
2021/03/18 03:25:24;;;;;;;8.10;5.55;;;2.30;96.30;;;;;;5071613;28;20203;-81
2021/03/18 03:27:52;;;;;;;8.50;6.18;;;2.40;96.60;;;;;;5071792;28;20296;-81
2021/03/18 03:30:19;;;;;;;7.07;5.78;;;2.30;96.40;;;;;;5071344;28;20207;-82
2021/03/18 03:32:46;;;;;;;7.88;5.05;;;2.20;96.20;;;;;;5070767;28;20265;-82
2021/03/18 03:35:14;;;;;;;6.80;5.43;;;2.30;96.40;;;;;;5071251;28;20226;-82
2021/03/18 03:37:41;;;;;;;6.07;4.78;;;2.20;96.50;;;;;;5071315;28;20195;-82
2021/03/18 03:40:10;;;;;;;6.13;5.53;;;2.30;96.80;;;;;;5071256;28;20570;-83
2021/03/18 03:42:38;;;;;;;5.32;4.82;;;2.30;96.80;;;;;;5070127;28;20226;-82
2021/03/18 03:45:06;;;;;;;5.78;5.20;;;2.20;96.50;;;;;;5070678;28;20223;-83
2021/03/18 03:47:33;;;;;;;5.78;5.15;;;2.20;96.40;;;;;;5071021;28;20231;-82
2021/03/18 03:50:00;;;;;;;6.03;5.47;;;2.20;96.30;;;;;;5071030;28;20567;-82
2021/03/18 03:52:31;;;;;;;5.30;4.82;;;2.10;96.30;;;;;;5070165;28;20199;-82
2021/03/18 03:55:02;;;;;;;7.10;5.40;;;1.90;96.50;;;;;;5063025;28;20317;-82
2021/03/18 03:57:35;;;;;;;5.10;4.65;;;2.10;96.80;;;;;;5070429;28;20191;-82
2021/03/18 04:00:06;;;;;;;5.35;4.65;;;2.10;96.40;;;;;;5071058;28;20277;-82
2021/03/18 04:02:34;;;;;;;10.85;5.32;;;2.20;96.20;;;;;;5070036;28;20199;-82
2021/03/18 04:05:02;;;;;;;7.03;5.10;;;2.00;95.60;;;;;;5070841;28;20246;-82
2021/03/18 04:07:31;;;;;;;6.32;4.80;;;2.00;96.00;;;;;;5070661;28;20579;-82
2021/03/18 04:10:00;;;;;;;8.13;4.47;;;2.10;95.90;;;;;;5070540;28;20261;-82
2021/03/18 04:12:31;;;;;;;5.82;5.30;;;2.30;96.00;;;;;;5070355;28;20286;-82
2021/03/18 04:15:03;;;;;;;5.80;4.65;;;2.20;95.50;;;;;;5070905;28;20211;-82
2021/03/18 04:17:31;;;;;;;5.22;3.95;;;2.10;95.40;;;;;;5070463;28;20603;-81
2021/03/18 04:20:00;;;;;;;6.95;6.00;;;2.10;95.10;;;;;;5070395;28;20738;-82
2021/03/18 04:22:29;;;;;;;5.50;4.45;;;2.00;95.10;;;;;;5069995;28;20293;-81
2021/03/18 04:24:57;;;;;;;6.80;4.40;;;1.90;95.20;;;;;;5060193;28;20210;-81
2021/03/18 04:27:24;;;;;;;5.10;4.55;;;1.80;95.50;;;;;;5070316;28;20752;-82
2021/03/18 04:29:51;;;;;;;5.13;4.72;;;1.90;95.80;;;;;;5070659;28;20285;-81
2021/03/18 04:32:18;;;;;;;5.57;3.97;;;2.00;95.90;;;;;;5070297;28;20286;-82
2021/03/18 04:34:46;;;;;;;8.13;5.20;;;2.20;95.90;;;;;;5068368;28;20234;-81
2021/03/18 04:37:13;;;;;;;6.78;5.32;;;2.20;95.80;;;;;;5070205;28;20253;-82
2021/03/18 04:39:41;;;;;;;4.30;3.90;;;2.10;95.50;;;;;;5070538;28;20192;-82
2021/03/18 04:42:10;;;;;;;6.68;4.70;;;2.00;95.30;;;;;;5070566;28;20707;-82
2021/03/18 04:44:37;;;;;;;5.60;4.85;;;1.90;95.50;;;;;;5069426;28;20203;-82
2021/03/18 04:47:04;;;;;;;4.45;4.03;;;1.90;95.80;;;;;;5069298;28;20246;-82
2021/03/18 04:49:31;;;;;;;5.95;4.05;;;2.00;95.80;;;;;;5069878;28;20282;-82
2021/03/18 04:51:58;;;;;;;4.43;4.03;;;1.80;95.60;;;;;;5069973;28;20203;-81
2021/03/18 04:54:25;;;;;;;4.25;3.85;;;1.80;95.90;;;;;;5069544;28;20658;-81
2021/03/18 04:56:53;;;;;;;5.00;4.07;;;1.80;95.90;;;;;;5070198;28;20276;-82
2021/03/18 04:59:19;;;;;;;6.57;4.65;;;1.70;96.00;;;;;;5070013;28;20249;-82
2021/03/18 05:01:48;;;;;;;4.90;3.95;;;1.60;95.90;;;;;;5069974;28;20290;-81
2021/03/18 05:04:16;;;;;;;5.75;4.25;;;1.80;96.20;;;;;;5069257;28;20294;-82
2021/03/18 05:06:46;;;;;;;4.68;4.25;;;1.90;95.90;;;;;;5070004;28;20219;-82
2021/03/18 05:09:14;;;;;;;4.75;4.35;;;2.00;95.80;;;;;;5070600;28;20207;-82
2021/03/18 05:11:51;;;;;;;5.40;4.20;;;1.70;95.90;;;;;;5070501;28;20211;-81
2021/03/18 05:14:20;;;;;;;4.97;4.50;;;1.70;96.00;;;;;;5069342;28;20198;-82
2021/03/18 05:16:48;;;;;;;7.10;5.60;;;1.50;96.00;;;;;;5069943;28;20195;-81
2021/03/18 05:19:16;;;;;;;5.20;4.70;;;1.50;96.50;;;;;;5069996;28;20211;-81
2021/03/18 05:21:44;;;;;;;5.45;4.40;;;1.50;96.50;;;;;;5070204;28;20274;-82
2021/03/18 05:24:11;;;;;;;5.10;4.63;;;1.50;96.50;;;;;;5069458;28;20822;-82
2021/03/18 05:26:39;;;;;;;4.72;4.32;;;1.60;96.40;;;;;;5070188;28;20224;-82
2021/03/18 05:29:06;;;;;;;4.88;4.45;;;1.50;96.10;;;;;;5069185;28;20203;-82
2021/03/18 05:31:32;;;;;;;6.95;3.97;;;1.40;96.40;;;;;;5069994;28;20625;-82
2021/03/18 05:33:59;;;;;;;5.35;4.35;;;1.40;96.50;;;;;;5068699;28;20290;-85
2021/03/18 05:36:26;;;;;;;10.40;4.68;;;1.50;96.60;;;;;;5070732;28;20695;-85
2021/03/18 05:38:52;;;;;;;6.47;4.70;;;1.50;96.30;;;;;;5069748;28;20740;-84
2021/03/18 05:41:19;;;;;;;5.40;4.93;;;1.70;96.20;;;;;;5068171;28;20671;-84
2021/03/18 05:43:47;;;;;;;4.85;4.45;;;1.80;96.30;;;;;;5067339;28;20286;-84
2021/03/18 05:46:14;;;;;;;6.35;5.28;;;1.90;96.00;;;;;;5069357;28;20310;-85
2021/03/18 05:48:42;;;;;;;5.35;4.80;;;1.80;95.40;;;;;;5071549;28;20226;-85
2021/03/18 05:51:14;;;;;;;6.55;5.22;;;1.90;95.60;;;;;;5073044;28;20214;-84
2021/03/18 05:53:43;;;;;;;8.55;5.85;;;2.00;95.40;;;;;;5071682;28;20215;-84
2021/03/18 05:56:14;;;;;;;6.30;5.28;;;2.30;95.50;;;;;;5073125;28;20202;-85
2021/03/18 05:58:41;;;;;;;6.00;5.40;;;2.20;95.10;;;;;;5073102;28;20671;-84
2021/03/18 06:01:09;;;;;;;6.05;5.45;;;2.20;94.90;;;;;;5073425;28;20195;-86
2021/03/18 06:03:36;;;;;;;6.65;5.20;;;2.30;95.00;;;;;;5070710;28;20756;-86
2021/03/18 06:06:05;;;;;;;8.65;5.40;;;2.30;94.90;;;;;;5072720;28;20243;-86
2021/03/18 06:08:33;;;;;;;6.57;5.35;;;2.30;94.70;;;;;;5072906;28;20298;-86
2021/03/18 06:11:00;;;;;;;6.68;4.40;;;2.40;94.60;;;;;;5072410;28;20239;-86
2021/03/18 06:13:27;;;;;;;5.97;5.38;;;2.20;94.30;;;;;;5072936;28;20195;-86
2021/03/18 06:15:53;;;;;;;5.35;4.32;;;2.40;94.50;;;;;;5073107;28;20286;-86
2021/03/18 06:18:20;;;;;;;7.57;5.22;;;2.40;94.50;;;;;;5073072;28;20345;-85
2021/03/18 06:20:50;;;;;;;7.68;4.35;;;2.30;94.50;;;;;;5072910;28;20672;-86
2021/03/18 06:23:17;;;;;;;6.10;5.50;;;2.30;94.90;;;;;;5072574;28;20652;-86
2021/03/18 06:25:43;;;;;;;6.88;5.28;;;2.40;95.20;;;;;;5073227;28;20638;-86
2021/03/18 06:28:20;;;;;;;8.15;5.18;;;2.30;95.50;;;;;;5070456;28;20207;-85
2021/03/18 06:30:57;;;;;;;6.97;5.97;;;2.40;95.30;;;;;;5061923;28;20239;-86
2021/03/18 06:33:27;;;;;;;5.57;5.07;;;2.40;95.20;;;;;;5070681;28;20199;-86
2021/03/18 06:35:54;;;;;;;7.88;7.05;;;2.50;95.40;;;;;;5072278;28;20204;-86
2021/03/18 06:38:27;;;;;;;10.77;6.20;;;2.60;95.10;;;;;;5072602;28;20199;-86
2021/03/18 06:40:54;;;;;;;6.85;5.95;;;2.50;95.20;;;;;;5073504;28;20225;-86
2021/03/18 06:43:36;;;;;;;7.25;5.93;;;2.50;95.10;;;;;;5072982;28;20207;-85
2021/03/18 06:46:14;;;;;;;6.05;5.43;;;2.40;94.90;;;;;;5070006;28;20219;-86
2021/03/18 06:48:42;;;;;;;9.02;5.85;;;2.40;95.00;;;;;;5072119;28;20215;-86
2021/03/18 06:51:20;;;;;;;10.95;5.72;;;2.40;95.20;;;;;;5073279;28;20556;-86
2021/03/18 06:53:49;;;;;;;6.90;6.00;;;2.40;95.30;;;;;;5072693;28;20269;-86
2021/03/18 06:56:21;;;;;;;10.95;7.63;;;2.40;95.30;;;;;;5072643;28;20743;-86
2021/03/18 06:58:48;;;;;;;8.20;6.20;;;2.30;95.10;;;;;;5071295;28;20199;-86
2021/03/18 07:01:14;;;;;;;9.05;6.25;;;2.20;95.50;;;;;;5072792;28;20256;-87
2021/03/18 07:03:42;;;;;;;9.30;6.70;;;2.50;95.70;;;;;;5072575;28;20215;-86
2021/03/18 07:06:10;;;;;;;10.02;6.07;;;2.30;95.20;;;;;;5072650;28;20211;-86
2021/03/18 07:08:39;;;;;;;6.20;5.60;;;2.40;94.90;;;;;;5072263;28;20226;-86
2021/03/18 07:11:19;;;;;;;6.65;5.43;;;2.20;95.10;;;;;;5072344;28;20204;-87
2021/03/18 07:13:48;;;;;;;8.38;6.20;;;2.60;95.60;;;;;;5072700;28;20740;-86
2021/03/18 07:16:15;;;;;;;6.60;5.95;;;2.60;95.10;;;;;;5072517;28;20195;-86
2021/03/18 07:18:57;;;;;;;6.00;5.38;;;2.60;95.30;;;;;;5073520;28;20227;-86
2021/03/18 07:21:35;;;;;;;8.02;5.13;;;2.30;94.40;;;;;;5053363;28;20657;-86
2021/03/18 07:24:02;;;;;;;12.63;6.47;;;2.60;94.80;;;;;;5067508;28;20247;-86
2021/03/18 07:26:29;;;;;;;9.05;6.22;;;2.50;94.40;;;;;;5072395;28;20688;-86
2021/03/18 07:29:15;;;;;;;7.97;5.70;;;2.70;94.20;;;;;;5072110;28;20200;-86
2021/03/18 07:31:42;;;;;;;11.20;5.43;;;2.90;94.10;;;;;;5072486;28;20199;-87
2021/03/18 07:34:10;;;;;;;7.35;5.70;;;2.60;93.10;;;;;;5071480;28;20210;-87
2021/03/18 07:36:37;;;;;;;9.13;5.72;;;2.70;93.40;;;;;;5067815;28;20222;-86
2021/03/18 07:39:05;;;;;;;8.45;5.88;;;2.90;93.20;;;;;;5071922;28;20241;-86
2021/03/18 07:41:33;;;;;;;7.80;6.05;;;2.90;93.10;;;;;;5072329;28;20203;-86
2021/03/18 07:44:06;;;;;;;8.30;5.32;;;2.80;93.20;;;;;;5071863;28;20656;-86
2021/03/18 07:46:36;;;;;;;9.73;5.80;;;2.70;93.40;;;;;;5052929;28;20582;-86
2021/03/18 07:49:10;;;;;;;7.72;5.78;;;3.00;93.40;;;;;;5063659;28;20196;-86
2021/03/18 07:51:39;;;;;;;7.75;6.55;;;3.40;93.20;;;;;;5073051;28;20195;-86
2021/03/18 07:54:11;;;;;;;8.05;5.50;;;3.60;92.90;;;;;;5072855;28;20286;-86
2021/03/18 07:57:29;;;;;;;;;;;;;;;;;;;;;
2021/03/18 08:03:29;;;;;;;11.85;6.78;;;2.90;92.30;;;;;;5063476;28;20219;-86
2021/03/18 08:05:57;;;;;;;12.13;6.20;;;3.20;93.20;;;;;;5071055;28;20196;-86
2021/03/18 08:08:42;;;;;;;7.07;5.78;;;3.40;93.00;;;;;;5071391;28;20195;-87
2021/03/18 08:11:11;;;;;;;9.13;6.47;;;3.40;92.20;;;;;;5050786;28;20257;-85
2021/03/18 08:13:40;;;;;;;10.80;6.72;;;3.20;91.70;;;;;;5058187;28;20212;-86
2021/03/18 08:16:09;;;;;;;11.90;6.65;;;3.20;92.40;;;;;;5071021;28;20203;-86
2021/03/18 08:18:38;;;;;;;11.88;7.50;;;3.30;92.40;;;;;;5071326;28;20199;-87
2021/03/18 08:21:10;;;;;;;7.30;6.60;;;3.00;91.80;;;;;;5071584;28;20202;-87
2021/03/18 08:23:42;;;;;;;7.95;6.22;;;3.20;92.10;;;;;;5071502;28;20202;-87
2021/03/18 08:26:12;;;;;;;8.70;6.70;;;3.50;92.80;;;;;;5070620;28;20227;-86
2021/03/18 08:28:46;;;;;;;9.75;7.75;;;3.60;92.00;;;;;;5070999;28;20207;-87
2021/03/18 08:31:14;;;;;;;8.40;7.05;;;3.80;92.40;;;;;;5051672;28;20203;-86
2021/03/18 08:33:47;;;;;;;9.38;6.72;;;4.00;92.10;;;;;;5056429;28;20252;-86
2021/03/18 08:36:22;;;;;;;7.90;7.07;;;4.50;91.90;;;;;;5071344;28;20641;-85
2021/03/18 08:39:47;;;;;;;13.25;8.20;;;4.70;91.10;;;;;;5067699;28;20210;-86
2021/03/18 08:42:35;;;;;;;7.28;5.88;;;4.70;89.00;;;;;;5035888;28;20276;-84
2021/03/18 08:45:06;;;;;;;9.80;6.75;;;4.80;88.60;;;;;;5070045;28;20245;-85
2021/03/18 08:47:37;;;;;;;7.78;6.72;;;5.20;89.10;;;;;;5070264;28;20218;-85
2021/03/18 08:50:06;;;;;;;8.30;7.10;;;5.00;84.70;;;;;;5070824;28;20207;-85
2021/03/18 08:52:40;;;;;;;8.98;6.90;;;4.40;86.80;;;;;;5069807;28;20709;-85
2021/03/18 08:55:08;;;;;;;9.35;6.15;;;4.70;88.00;;;;;;5069930;28;20205;-86
2021/03/18 08:57:36;;;;;;;9.63;6.63;;;4.80;86.60;;;;;;5069820;28;20233;-86
2021/03/18 09:00:15;;;;;;;7.80;6.22;;;4.90;84.50;;;;;;5071012;28;20325;-87
2021/03/18 09:02:42;;;;;;;8.88;7.45;;;4.70;84.80;;;;;;5070472;28;20191;-87
2021/03/18 09:05:14;;;;;;;8.63;6.82;;;4.40;85.10;;;;;;5070277;28;20572;-86
2021/03/18 09:07:43;;;;;;;8.73;6.80;;;4.10;86.30;;;;;;5070691;28;20222;-86
2021/03/18 09:10:18;;;;;;;8.48;6.30;;;3.90;86.90;;;;;;5069068;28;20249;-86
2021/03/18 09:12:48;;;;;;;7.75;6.65;;;4.20;87.80;;;;;;5070233;28;20207;-86
2021/03/18 09:15:21;;;;;;;8.13;6.88;;;4.30;87.40;;;;;;5069824;28;20222;-85
2021/03/18 09:17:50;;;;;;;8.93;6.97;;;4.30;88.60;;;;;;5070282;28;20192;-85
2021/03/18 09:20:20;;;;;;;10.95;6.60;;;4.40;88.70;;;;;;5069816;28;20232;-85
2021/03/18 09:22:47;;;;;;;8.85;6.80;;;4.60;88.30;;;;;;5073524;28;20218;-86
2021/03/18 09:25:15;;;;;;;7.32;6.53;;;4.70;87.70;;;;;;5073330;28;20195;-85
2021/03/18 09:27:43;;;;;;;9.43;6.85;;;4.90;86.70;;;;;;5074098;28;20222;-85
2021/03/18 09:30:35;;;;;;;9.48;6.85;;;5.30;86.90;;;;;;5073758;28;20203;-86
2021/03/18 09:33:15;;;;;;;9.40;6.65;;;5.50;84.80;;;;;;5062257;28;20549;-85
2021/03/18 09:35:41;;;;;;;7.18;6.25;;;5.50;83.70;;;;;;5073762;28;20217;-86
2021/03/18 09:38:16;;;;;;;9.55;7.57;;;5.30;82.50;;;;;;5073845;28;20199;-85
2021/03/18 09:40:43;;;;;;;8.32;7.00;;;5.60;84.40;;;;;;5073692;28;20209;-85
2021/03/18 09:43:10;;;;;;;7.10;6.40;;;5.80;83.60;;;;;;5073445;28;20207;-85
2021/03/18 09:45:37;;;;;;;8.20;7.38;;;6.00;83.60;;;;;;5073109;28;20199;-85
2021/03/18 09:48:04;;;;;;;14.15;7.15;;;5.60;80.70;;;;;;5073676;28;20276;-86
2021/03/18 09:50:32;;;;;;;8.60;7.32;;;5.30;79.80;;;;;;5073015;28;20660;-85
2021/03/18 09:53:07;;;;;;;6.93;5.90;;;5.00;82.60;;;;;;5072917;28;20676;-85
2021/03/18 09:55:34;;;;;;;9.30;6.85;;;4.80;82.80;;;;;;5073361;28;20195;-85
2021/03/18 09:58:10;;;;;;;8.82;6.60;;;5.10;84.70;;;;;;5072931;28;20720;-85
2021/03/18 10:00:38;;;;;;;9.30;6.45;;;5.40;83.40;;;;;;5073506;28;20206;-85
2021/03/18 10:03:05;;;;;;;11.40;8.77;;;5.20;84.00;;;;;;5072987;28;20229;-85
2021/03/18 10:05:33;;;;;;;9.60;7.22;;;5.00;84.50;;;;;;5073030;28;20199;-85
2021/03/18 10:08:00;;;;;;;9.80;7.13;;;4.90;86.20;;;;;;5072704;28;20226;-85
2021/03/18 10:10:27;;;;;;;8.93;7.85;;;4.90;87.20;;;;;;5070819;28;20195;-85
2021/03/18 10:12:54;;;;;;;7.95;6.32;;;4.90;85.50;;;;;;5072569;28;20195;-85
2021/03/18 10:15:21;;;;;;;8.93;7.82;;;5.10;85.90;;;;;;5069927;28;20199;-85
2021/03/18 10:17:50;;;;;;;7.93;6.95;;;4.70;84.70;;;;;;5072342;28;20202;-85
2021/03/18 10:20:19;;;;;;;8.75;6.45;;;5.00;85.80;;;;;;5072663;28;20210;-85
2021/03/18 10:22:49;;;;;;;9.18;6.80;;;4.70;83.70;;;;;;5071934;28;20224;-84
2021/03/18 10:25:17;;;;;;;6.03;5.47;;;4.80;84.90;;;;;;5072205;28;20721;-85
2021/03/18 10:27:45;;;;;;;9.35;5.68;;;5.00;83.60;;;;;;5072385;28;20211;-85
2021/03/18 10:30:17;;;;;;;6.60;5.32;;;5.30;83.20;;;;;;5073086;28;20202;-85
2021/03/18 10:33:09;;;;;;;8.85;7.10;;;5.00;79.80;;;;;;5070372;28;20195;-85
2021/03/18 10:35:38;;;;;;;8.35;6.70;;;5.00;80.40;;;;;;5071884;28;20202;-86
2021/03/18 10:38:10;;;;;;;7.78;5.75;;;5.70;81.80;;;;;;5072195;28;20652;-85
2021/03/18 10:40:42;;;;;;;7.53;5.38;;;6.10;79.40;;;;;;5072259;28;20195;-85
2021/03/18 10:43:24;;;;;;;5.07;4.57;;;6.30;76.30;;;;;;5071385;28;20207;-85
2021/03/18 10:45:52;;;;;;;5.93;5.32;;;6.60;78.40;;;;;;5071935;28;20206;-85
2021/03/18 10:48:22;;;;;;;10.32;5.28;;;7.00;77.60;;;;;;5071999;28;20223;-86
2021/03/18 10:50:50;;;;;;;9.35;6.03;;;6.60;74.60;;;;;;5071576;28;20207;-85
2021/03/18 10:53:16;;;;;;;7.32;5.75;;;6.10;76.20;;;;;;5071590;28;20608;-85
2021/03/18 10:55:47;;;;;;;7.47;5.95;;;6.20;74.20;;;;;;5071896;28;20207;-86
2021/03/18 10:58:17;;;;;;;9.48;8.57;;;6.50;74.10;;;;;;5068121;28;20191;-85
2021/03/18 11:00:44;;;;;;;12.95;11.63;;;6.40;70.70;;;;;;5071743;28;20199;-86
2021/03/18 11:03:14;;;;;;;12.00;10.05;;;6.50;72.30;;;;;;5071234;28;20204;-86
2021/03/18 11:05:44;;;;;;;6.68;6.07;;;5.90;71.70;;;;;;5062960;28;20207;-85
2021/03/18 11:08:12;;;;;;;8.25;7.45;;;6.40;74.40;;;;;;5072142;28;20227;-86
2021/03/18 11:10:47;;;;;;;5.70;5.00;;;6.80;75.20;;;;;;5070072;28;20218;-86
2021/03/18 11:13:20;;;;;;;5.38;3.95;;;6.60;73.00;;;;;;5071492;28;20210;-85
2021/03/18 11:15:55;;;;;;;5.00;3.97;;;7.00;70.40;;;;;;5072431;28;20210;-85
2021/03/18 11:18:38;;;;;;;3.90;3.60;;;7.30;68.90;;;;;;5071346;28;20203;-85
2021/03/18 11:21:18;;;;;;;4.45;4.03;;;7.40;67.80;;;;;;5072027;28;20507;-85
2021/03/18 11:23:45;;;;;;;6.93;3.65;;;7.60;67.60;;;;;;5070770;28;20221;-86
2021/03/18 11:26:13;;;;;;;4.88;4.47;;;7.90;66.50;;;;;;5071990;28;20203;-86
2021/03/18 11:28:48;;;;;;;5.70;4.63;;;8.10;64.60;;;;;;5071379;28;20652;-85
2021/03/18 11:31:17;;;;;;;9.68;4.47;;;8.30;65.30;;;;;;5071571;28;20217;-85
2021/03/18 11:33:44;;;;;;;4.10;3.70;;;8.60;64.10;;;;;;5071034;28;20656;-86
2021/03/18 11:36:11;;;;;;;5.63;3.85;;;8.40;62.30;;;;;;5071520;28;20211;-86
2021/03/18 11:38:38;;;;;;;4.53;4.13;;;7.60;61.10;;;;;;5071608;28;20192;-85
2021/03/18 11:41:05;;;;;;;4.20;3.90;;;6.80;59.80;;;;;;5072513;28;20667;-86
2021/03/18 11:43:32;;;;;;;4.78;4.38;;;7.40;64.00;;;;;;5070003;28;20203;-86
2021/03/18 11:45:58;;;;;;;5.53;4.28;;;8.00;65.80;;;;;;5051523;28;20680;-86
2021/03/18 11:48:25;;;;;;;5.10;4.63;;;7.30;60.60;;;;;;5070737;28;20219;-87
2021/03/18 11:50:52;;;;;;;4.07;3.78;;;6.90;62.00;;;;;;5071738;28;20199;-86
2021/03/18 11:53:19;;;;;;;5.15;4.45;;;7.70;62.80;;;;;;5070852;28;20586;-86
2021/03/18 11:55:46;;;;;;;3.85;3.30;;;7.60;60.60;;;;;;5070759;28;20657;-86
2021/03/18 11:58:12;;;;;;;4.72;4.32;;;7.70;61.40;;;;;;5073638;28;20649;-86
2021/03/18 12:00:40;;;;;;;5.00;4.40;;;8.00;62.50;;;;;;5070138;28;20604;-87
2021/03/18 12:03:10;;;;;;;4.85;4.28;;;8.40;62.10;;;;;;5070251;28;20196;-87
2021/03/18 12:05:38;;;;;;;5.05;4.05;;;8.70;59.70;;;;;;5071299;28;20618;-87
2021/03/18 12:08:05;;;;;;;8.13;4.23;;;9.00;58.40;;;;;;5070654;28;20236;-87
2021/03/18 12:10:32;;;;;;;4.75;4.35;;;9.20;58.70;;;;;;5070463;28;20609;-87
2021/03/18 12:12:59;;;;;;;4.20;3.73;;;8.50;56.60;;;;;;5070326;28;20712;-87
2021/03/18 12:15:26;;;;;;;5.03;4.50;;;8.70;58.30;;;;;;5063895;28;21170;-87
2021/03/18 12:17:52;;;;;;;4.25;3.85;;;8.00;56.20;;;;;;5050551;28;20200;-85
2021/03/18 12:20:21;;;;;;;4.50;4.13;;;8.60;58.10;;;;;;5070675;28;20206;-85
2021/03/18 12:22:49;;;;;;;3.90;3.57;;;9.30;59.00;;;;;;5070411;28;20687;-85
2021/03/18 12:25:17;;;;;;;5.57;5.00;;;8.80;57.70;;;;;;5070185;28;20629;-85
2021/03/18 12:27:45;;;;;;;5.73;5.20;;;8.60;60.70;;;;;;5070393;28;21243;-85
2021/03/18 12:30:14;;;;;;;3.72;3.42;;;8.70;61.10;;;;;;5069521;28;20617;-84
2021/03/18 12:32:41;;;;;;;7.55;3.70;;;8.80;59.10;;;;;;5070378;28;20234;-85
2021/03/18 12:35:09;;;;;;;4.70;3.80;;;8.60;58.80;;;;;;5070489;28;20554;-85
2021/03/18 12:37:36;;;;;;;4.73;4.30;;;8.60;58.60;;;;;;5062285;28;20200;-85
2021/03/18 12:40:04;;;;;;;5.30;4.60;;;8.70;59.10;;;;;;5069861;28;20679;-85
2021/03/18 12:42:31;;;;;;;6.90;4.65;;;8.10;58.60;;;;;;5069565;28;20202;-84
2021/03/18 12:44:59;;;;;;;6.80;5.65;;;7.10;65.60;;;;;;5070149;28;20288;-85
2021/03/18 12:47:26;;;;;;;6.45;5.78;;;7.00;69.80;;;;;;5070558;28;20215;-86
2021/03/18 12:49:52;;;;;;;6.50;5.78;;;6.80;70.20;;;;;;5069828;28;20204;-86
2021/03/18 12:52:19;;;;;;;4.38;4.05;;;6.40;70.70;;;;;;5070773;28;20549;-85
2021/03/18 12:54:46;;;;;;;4.88;4.38;;;6.30;70.70;;;;;;5069321;28;20195;-86
2021/03/18 12:57:12;;;;;;;8.95;5.40;;;6.10;72.10;;;;;;5068865;28;20685;-86
2021/03/18 12:59:39;;;;;;;8.10;4.53;;;6.20;73.30;;;;;;5070036;28;20213;-86
2021/03/18 13:02:06;;;;;;;6.28;5.10;;;5.90;72.70;;;;;;5070671;28;20203;-86
2021/03/18 13:04:33;;;;;;;5.22;3.75;;;5.70;73.20;;;;;;5069427;28;20699;-86
2021/03/18 13:06:59;;;;;;;5.22;4.72;;;5.50;73.80;;;;;;5069942;28;20211;-86
2021/03/18 13:09:26;;;;;;;5.45;4.95;;;5.70;74.70;;;;;;5069463;28;20241;-86
2021/03/18 13:11:53;;;;;;;6.40;5.80;;;5.60;73.90;;;;;;5070116;28;20211;-86
2021/03/18 13:14:20;;;;;;;5.68;5.07;;;5.50;73.40;;;;;;5067456;28;20191;-86